createdAt,value
2022-11-20T00:00:55.326Z,24.53
2022-11-20T00:03:23.256Z,22.97
2022-11-20T00:05:51.185Z,24.03
2022-11-20T00:08:19.081Z,24.60
2022-11-20T00:10:46.873Z,23.20
2022-11-20T00:13:14.537Z,22.53
2022-11-20T00:15:42.154Z,22.77
2022-11-20T00:18:11.544Z,24.20
2022-11-20T00:20:39.642Z,23.50
2022-11-20T00:23:07.884Z,23.30
2022-11-20T00:25:36.425Z,23.50
2022-11-20T00:28:04.290Z,22.70
2022-11-20T00:30:32.061Z,23.03
2022-11-20T00:32:59.858Z,22.70
2022-11-20T00:35:29.038Z,22.67
2022-11-20T00:37:56.644Z,22.37
2022-11-20T00:40:24.426Z,23.77
2022-11-20T00:42:52.418Z,22.97
2022-11-20T00:45:20.106Z,23.90
2022-11-20T00:47:48.045Z,22.80
2022-11-20T00:50:15.781Z,23.53
2022-11-20T00:52:44.910Z,23.60
2022-11-20T00:55:12.675Z,22.37
2022-11-20T00:57:40.390Z,22.80
2022-11-20T01:00:09.168Z,22.77
2022-11-20T01:02:36.784Z,22.27
2022-11-20T01:05:04.690Z,22.30
2022-11-20T01:07:32.351Z,22.93
2022-11-20T01:10:01.368Z,21.33
2022-11-20T01:12:29.028Z,22.53
2022-11-20T01:14:56.811Z,20.67
2022-11-20T01:17:24.442Z,19.77
2022-11-20T01:19:52.324Z,19.83
2022-11-20T01:22:20.399Z,21.47
2022-11-20T01:24:48.083Z,21.00
2022-11-20T01:27:17.145Z,19.90
2022-11-20T01:29:44.857Z,20.03
2022-11-20T01:32:12.502Z,21.47
2022-11-20T01:34:40.324Z,20.47
2022-11-20T01:37:07.982Z,20.83
2022-11-20T01:39:35.810Z,20.80
2022-11-20T01:42:20.954Z,19.70
2022-11-20T01:44:56.420Z,19.63
2022-11-20T01:47:31.254Z,20.83
2022-11-20T01:50:03.775Z,19.63
2022-11-20T01:52:36.793Z,19.70
2022-11-20T01:55:09.535Z,20.47
2022-11-20T01:57:38.036Z,20.03
2022-11-20T02:00:09.699Z,19.97
2022-11-20T02:02:48.429Z,19.97
2022-11-20T02:05:22.099Z,18.93
2022-11-20T02:07:50.523Z,21.90
2022-11-20T02:10:18.734Z,22.67
2022-11-20T02:13:04.152Z,19.93
2022-11-20T02:15:36.212Z,19.00
2022-11-20T02:18:04.130Z,20.20
2022-11-20T02:20:31.904Z,17.83
2022-11-20T02:23:04.984Z,18.10
2022-11-20T02:25:37.040Z,18.03
2022-11-20T02:28:05.607Z,18.40
2022-11-20T02:30:33.638Z,17.43
2022-11-20T02:33:01.371Z,17.33
2022-11-20T02:35:43.535Z,18.23
2022-11-20T02:38:11.945Z,17.93
2022-11-20T02:40:41.291Z,17.80
2022-11-20T02:43:10.521Z,18.47
2022-11-20T02:45:38.551Z,17.47
2022-11-20T02:48:08.133Z,16.67
2022-11-20T02:50:38.138Z,17.97
2022-11-20T02:53:06.042Z,16.30
2022-11-20T02:55:33.997Z,17.83
2022-11-20T02:58:03.057Z,17.43
2022-11-20T03:00:31.661Z,17.70
2022-11-20T03:02:59.454Z,18.57
2022-11-20T03:05:27.168Z,17.90
2022-11-20T03:07:54.871Z,18.20
2022-11-20T03:10:22.689Z,16.63
2022-11-20T03:12:55.202Z,18.57
2022-11-20T03:15:24.291Z,19.00
2022-11-20T03:17:55.549Z,18.70
2022-11-20T03:20:23.628Z,18.40
2022-11-20T03:22:51.384Z,19.40
2022-11-20T03:25:19.093Z,18.63
2022-11-20T03:27:46.758Z,18.17
2022-11-20T03:30:15.412Z,19.13
2022-11-20T03:32:45.269Z,19.50
2022-11-20T03:35:13.052Z,19.63
2022-11-20T03:37:40.742Z,19.00
2022-11-20T03:40:09.262Z,18.67
2022-11-20T03:42:48.840Z,18.27
2022-11-20T03:45:17.865Z,17.80
2022-11-20T03:47:48.218Z,18.27
2022-11-20T03:50:16.111Z,18.60
2022-11-20T03:52:44.116Z,18.67
2022-11-20T03:55:11.863Z,17.67
2022-11-20T03:57:39.549Z,18.67
2022-11-20T04:00:08.578Z,16.77
2022-11-20T04:02:36.306Z,18.20
2022-11-20T04:05:05.812Z,18.20
2022-11-20T04:07:35.598Z,16.73
2022-11-20T04:10:03.699Z,18.43
2022-11-20T04:12:34.164Z,17.47
2022-11-20T04:15:01.920Z,18.40
2022-11-20T04:17:29.549Z,19.40
2022-11-20T04:19:57.165Z,19.27
2022-11-20T04:22:27.213Z,18.10
2022-11-20T04:24:54.887Z,19.37
2022-11-20T04:27:22.897Z,19.17
2022-11-20T04:29:50.500Z,20.40
2022-11-20T04:32:18.120Z,18.53
2022-11-20T04:34:45.705Z,19.57
2022-11-20T04:37:13.412Z,18.27
2022-11-20T04:39:42.666Z,17.83
2022-11-20T04:42:28.352Z,19.17
2022-11-20T04:44:56.786Z,18.57
2022-11-20T04:47:24.526Z,19.13
2022-11-20T04:49:52.338Z,19.27
2022-11-20T04:52:20.063Z,18.70
2022-11-20T04:54:48.993Z,19.57
2022-11-20T04:57:17.131Z,19.63
2022-11-20T04:59:44.815Z,19.30
2022-11-20T05:02:13.875Z,17.90
2022-11-20T05:04:41.577Z,18.33
2022-11-20T05:07:09.241Z,17.20
2022-11-20T05:09:37.082Z,17.37
2022-11-20T05:12:06.627Z,17.90
2022-11-20T05:14:34.269Z,17.50
2022-11-20T05:17:01.986Z,17.35
2022-11-20T05:19:29.606Z,17.03
2022-11-20T05:21:57.216Z,17.08
2022-11-20T05:24:25.008Z,17.23
2022-11-20T05:26:52.689Z,17.77
2022-11-20T05:29:21.922Z,16.57
2022-11-20T05:31:50.209Z,16.50
2022-11-20T05:34:17.944Z,16.57
2022-11-20T05:36:45.525Z,16.97
2022-11-20T05:39:13.186Z,17.37
2022-11-20T05:41:40.818Z,18.15
2022-11-20T05:44:08.518Z,16.30
2022-11-20T05:46:37.574Z,16.20
2022-11-20T05:49:05.210Z,16.00
2022-11-20T05:51:32.791Z,16.37
2022-11-20T05:54:00.529Z,16.87
2022-11-20T05:56:28.128Z,16.17
2022-11-20T05:58:55.766Z,18.20
2022-11-20T06:01:25.660Z,16.50
2022-11-20T06:03:55.320Z,16.90
2022-11-20T06:06:23.075Z,17.43
2022-11-20T06:08:51.100Z,18.17
2022-11-20T06:11:19.342Z,17.13
2022-11-20T06:13:47.981Z,17.20
2022-11-20T06:16:18.062Z,18.53
2022-11-20T06:18:45.884Z,18.00
2022-11-20T06:21:16.742Z,17.97
2022-11-20T06:23:46.120Z,18.43
2022-11-20T06:26:16.282Z,18.58
2022-11-20T06:28:44.118Z,20.73
2022-11-20T06:31:14.455Z,19.73
2022-11-20T06:33:42.442Z,19.83
2022-11-20T06:36:12.280Z,19.73
2022-11-20T06:38:42.070Z,18.97
2022-11-20T06:41:13.688Z,20.53
2022-11-20T06:43:41.865Z,18.48
2022-11-20T06:46:11.549Z,18.25
2022-11-20T06:48:39.485Z,20.90
2022-11-20T06:51:08.515Z,20.37
2022-11-20T06:53:36.985Z,20.92
2022-11-20T06:56:06.606Z,19.60
2022-11-20T06:58:36.149Z,20.23
2022-11-20T07:01:05.642Z,19.67
2022-11-20T07:03:33.416Z,19.88
2022-11-20T07:06:02.604Z,19.33
2022-11-20T07:08:30.598Z,19.83
2022-11-20T07:11:01.643Z,20.40
2022-11-20T07:13:31.109Z,19.27
2022-11-20T07:16:02.366Z,18.33
2022-11-20T07:18:30.315Z,19.97
2022-11-20T07:20:58.134Z,18.83
2022-11-20T07:23:25.784Z,18.88
2022-11-20T07:25:53.360Z,19.50
2022-11-20T07:28:21.041Z,18.80
2022-11-20T07:30:52.996Z,20.00
2022-11-20T07:33:21.292Z,19.75
2022-11-20T07:35:48.950Z,20.47
2022-11-20T07:38:17.013Z,20.65
2022-11-20T07:40:44.808Z,18.83
2022-11-20T07:43:12.408Z,19.57
2022-11-20T07:45:39.971Z,19.77
2022-11-20T07:48:08.996Z,18.92
2022-11-20T07:50:37.034Z,19.10
2022-11-20T07:53:06.069Z,20.10
2022-11-20T07:55:34.480Z,19.80
2022-11-20T07:58:02.076Z,21.33
2022-11-20T08:00:30.203Z,23.90
2022-11-20T08:02:57.873Z,23.27
2022-11-20T08:05:27.049Z,22.83
2022-11-20T08:07:54.606Z,25.60
2022-11-20T08:10:22.198Z,22.00
2022-11-20T08:13:09.114Z,20.70
2022-11-20T08:15:37.662Z,19.93
2022-11-20T08:20:56.550Z,18.00
2022-11-20T08:23:24.732Z,18.70
2022-11-20T08:25:52.889Z,18.57
2022-11-20T08:28:22.105Z,19.60
2022-11-20T08:30:50.829Z,21.27
2022-11-20T08:33:19.323Z,20.13
2022-11-20T08:35:47.536Z,21.73
2022-11-20T08:38:16.649Z,21.07
2022-11-20T08:41:05.146Z,21.53
2022-11-20T08:43:32.797Z,21.00
2022-11-20T08:46:00.505Z,21.37
2022-11-20T08:48:29.274Z,20.33
2022-11-20T08:51:00.369Z,20.30
2022-11-20T08:53:30.338Z,21.07
2022-11-20T08:55:59.141Z,19.08
2022-11-20T08:58:27.451Z,20.63
2022-11-20T09:00:55.677Z,19.43
2022-11-20T09:03:27.430Z,18.90
2022-11-20T09:06:01.873Z,20.67
2022-11-20T09:08:31.396Z,18.23
2022-11-20T09:10:59.988Z,20.17
2022-11-20T09:13:29.388Z,20.07
2022-11-20T09:15:58.549Z,22.23
2022-11-20T09:18:26.594Z,21.93
2022-11-20T09:20:58.472Z,23.90
2022-11-20T09:23:26.950Z,22.77
2022-11-20T09:26:00.484Z,20.75
2022-11-20T09:28:28.292Z,20.40
2022-11-20T09:30:56.225Z,21.40
2022-11-20T09:33:24.006Z,21.40
2022-11-20T09:35:51.653Z,20.77
2022-11-20T09:38:19.828Z,20.80
2022-11-20T09:40:56.828Z,20.60
2022-11-20T09:43:42.485Z,21.53
2022-11-20T09:46:19.278Z,20.50
2022-11-20T09:49:11.929Z,20.60
2022-11-20T09:51:48.346Z,21.27
2022-11-20T09:54:19.737Z,20.03
2022-11-20T09:56:51.953Z,19.40
2022-11-20T09:59:38.162Z,20.33
2022-11-20T10:02:17.670Z,20.00
2022-11-20T10:04:51.525Z,21.92
2022-11-20T10:07:33.439Z,20.05
2022-11-20T10:10:01.894Z,20.05
2022-11-20T10:12:39.634Z,20.45
2022-11-20T10:15:32.495Z,20.13
2022-11-20T10:18:11.402Z,20.58
2022-11-20T10:20:48.283Z,19.87
2022-11-20T10:23:38.866Z,19.17
2022-11-20T10:26:19.237Z,20.20
2022-11-20T10:29:04.735Z,19.65
2022-11-20T10:31:39.201Z,19.15
2022-11-20T10:34:15.945Z,19.15
2022-11-20T10:36:52.804Z,20.55
2022-11-20T10:39:27.891Z,19.00
2022-11-20T10:41:55.613Z,20.20
2022-11-20T10:44:41.478Z,20.93
2022-11-20T10:47:16.531Z,21.30
2022-11-20T10:49:46.894Z,21.45
2022-11-20T10:52:23.576Z,22.35
2022-11-20T10:55:01.270Z,21.63
2022-11-20T10:57:53.879Z,22.05
2022-11-20T11:00:21.753Z,20.95
2022-11-20T11:02:52.610Z,21.67
2022-11-20T11:05:32.630Z,22.73
2022-11-20T11:08:01.177Z,23.10
2022-11-20T11:10:38.304Z,23.40
2022-11-20T11:13:06.018Z,22.60
2022-11-20T11:15:41.684Z,24.08
2022-11-20T11:18:12.427Z,23.42
2022-11-20T11:20:40.741Z,24.45
2022-11-20T11:23:30.678Z,24.13
2022-11-20T11:26:00.521Z,25.55
2022-11-20T11:28:29.939Z,25.92
2022-11-20T11:30:57.948Z,25.25
2022-11-20T11:33:29.099Z,25.70
2022-11-20T11:35:59.166Z,25.02
2022-11-20T11:38:33.287Z,25.63
2022-11-20T11:41:01.173Z,25.52
2022-11-20T11:43:49.535Z,24.95
2022-11-20T11:46:33.450Z,25.75
2022-11-20T11:49:14.566Z,24.35
2022-11-20T11:51:55.465Z,23.73
2022-11-20T11:54:27.532Z,24.23
2022-11-20T11:56:55.904Z,23.88
2022-11-20T11:59:29.860Z,23.92
2022-11-20T12:02:02.570Z,23.85
2022-11-20T12:04:44.081Z,23.05
2022-11-20T12:07:45.107Z,24.33
2022-11-20T12:10:08.142Z,23.02
2022-11-20T12:12:43.651Z,24.88
2022-11-20T12:15:14.388Z,24.27
2022-11-20T12:17:42.558Z,24.10
2022-11-20T12:20:16.511Z,23.38
2022-11-20T12:22:55.497Z,24.13
2022-11-20T12:25:26.664Z,23.48
2022-11-20T12:28:17.446Z,21.42
2022-11-20T12:30:54.350Z,22.48
2022-11-20T12:33:45.661Z,21.75
2022-11-20T12:36:26.002Z,21.83
2022-11-20T12:39:05.123Z,20.95
2022-11-20T12:42:17.906Z,21.83
2022-11-20T12:45:13.195Z,21.45
2022-11-20T12:47:56.795Z,21.10
2022-11-20T12:50:53.412Z,20.35
2022-11-20T12:53:36.778Z,20.88
2022-11-20T12:56:16.565Z,22.02
2022-11-20T12:58:54.662Z,23.55
2022-11-20T13:01:43.623Z,22.25
2022-11-20T13:04:48.748Z,22.42
2022-11-20T13:07:19.442Z,21.85
2022-11-20T13:09:52.087Z,20.52
2022-11-20T13:12:25.157Z,20.25
2022-11-20T13:15:00.095Z,18.65
2022-11-20T13:17:35.950Z,18.20
2022-11-20T13:20:08.158Z,19.38
2022-11-20T13:22:46.134Z,18.40
2022-11-20T13:25:26.348Z,18.55
2022-11-20T13:27:54.965Z,18.42
2022-11-20T13:30:25.060Z,16.50
2022-11-20T13:32:55.308Z,16.92
2022-11-20T13:35:29.414Z,16.63
2022-11-20T13:38:09.408Z,16.15
2022-11-20T13:40:41.550Z,16.05
2022-11-20T13:43:25.594Z,16.60
2022-11-20T13:46:01.021Z,16.00
2022-11-20T13:48:33.347Z,15.30
2022-11-20T13:51:13.269Z,15.32
2022-11-20T13:53:58.876Z,14.70
2022-11-20T13:56:42.751Z,13.57
2022-11-20T13:59:26.314Z,12.25
2022-11-20T14:01:58.355Z,12.13
2022-11-20T14:04:32.930Z,10.45
2022-11-20T14:07:02.633Z,10.90
2022-11-20T14:09:32.951Z,8.95
2022-11-20T14:12:04.832Z,8.45
2022-11-20T14:14:37.534Z,8.95
2022-11-20T14:17:10.679Z,8.63
2022-11-20T14:19:41.178Z,8.50
2022-11-20T14:22:12.853Z,9.27
2022-11-20T14:24:43.472Z,9.77
2022-11-20T14:27:18.965Z,9.18
2022-11-20T14:29:52.768Z,9.00
2022-11-20T14:32:24.284Z,7.88
2022-11-20T14:34:54.515Z,6.65
2022-11-20T14:37:27.478Z,6.05
2022-11-20T14:39:59.958Z,5.20
2022-11-20T14:42:31.750Z,4.70
2022-11-20T14:45:01.108Z,4.35
2022-11-20T14:47:33.013Z,3.40
2022-11-20T14:50:08.634Z,3.00
2022-11-20T14:52:37.764Z,2.90
2022-11-20T14:55:06.982Z,3.28
2022-11-20T14:57:38.331Z,2.25
2022-11-20T15:00:10.050Z,2.10
2022-11-20T15:02:42.217Z,2.40
2022-11-20T15:05:10.684Z,2.55
2022-11-20T15:07:48.386Z,2.63
2022-11-20T15:10:25.029Z,2.35
2022-11-20T15:12:56.772Z,3.42
2022-11-20T15:15:32.089Z,2.30
2022-11-20T15:18:00.943Z,2.30
2022-11-20T15:20:32.932Z,2.10
2022-11-20T15:23:00.885Z,2.10
2022-11-20T15:25:29.274Z,2.20
2022-11-20T15:27:59.497Z,2.22
2022-11-20T15:30:27.947Z,2.40
2022-11-20T15:32:56.730Z,2.30
2022-11-20T15:35:24.557Z,2.30
2022-11-20T15:37:52.357Z,3.70
2022-11-20T15:40:20.079Z,2.67
2022-11-20T15:43:01.748Z,1.80
2022-11-20T15:45:35.479Z,2.33
2022-11-20T15:48:03.524Z,2.88
2022-11-20T15:50:38.122Z,2.95
2022-11-20T15:53:06.449Z,2.85
2022-11-20T15:55:34.576Z,2.00
2022-11-20T15:58:02.382Z,3.00
2022-11-20T16:00:32.540Z,2.75
2022-11-20T16:03:00.366Z,3.30
2022-11-20T16:05:30.318Z,3.47
2022-11-20T16:07:58.220Z,3.97
2022-11-20T16:10:25.996Z,3.53
2022-11-20T16:13:11.476Z,3.28
2022-11-20T16:15:49.900Z,3.30
2022-11-20T16:18:20.196Z,3.72
2022-11-20T16:20:50.886Z,4.65
2022-11-20T16:23:19.182Z,3.15
2022-11-20T16:25:47.071Z,3.22
2022-11-20T16:28:18.909Z,2.67
2022-11-20T16:30:48.594Z,3.50
2022-11-20T16:33:18.048Z,3.38
2022-11-20T16:35:46.020Z,2.78
2022-11-20T16:38:13.674Z,3.58
2022-11-20T16:40:41.339Z,4.05
2022-11-20T16:43:11.866Z,3.63
2022-11-20T16:45:43.895Z,5.45
2022-11-20T16:48:16.210Z,6.15
2022-11-20T16:50:49.227Z,4.97
2022-11-20T16:53:17.141Z,4.93
2022-11-20T16:55:44.886Z,4.55
2022-11-20T16:58:12.872Z,5.90
2022-11-20T17:00:43.616Z,3.80
2022-11-20T17:03:17.798Z,3.55
2022-11-20T17:05:45.653Z,4.60
2022-11-20T17:08:13.281Z,4.22
2022-11-20T17:10:41.181Z,5.38
2022-11-20T17:13:08.888Z,5.20
2022-11-20T17:15:36.663Z,5.40
2022-11-20T17:18:04.410Z,10.32
2022-11-20T17:20:33.475Z,15.98
2022-11-20T17:23:01.221Z,5.13
2022-11-20T17:25:28.822Z,5.82
2022-11-20T17:27:56.582Z,4.65
2022-11-20T17:30:24.969Z,4.72
2022-11-20T17:32:52.620Z,4.20
2022-11-20T17:35:20.292Z,4.05
2022-11-20T17:37:49.258Z,4.60
2022-11-20T17:40:17.181Z,4.97
2022-11-20T17:42:44.953Z,4.57
2022-11-20T17:45:12.642Z,5.05
2022-11-20T17:47:40.278Z,4.75
2022-11-20T17:50:09.021Z,3.90
2022-11-20T17:52:36.723Z,4.10
2022-11-20T17:55:06.851Z,3.90
2022-11-20T17:57:52.033Z,3.20
2022-11-20T18:00:20.408Z,4.13
2022-11-20T18:02:48.021Z,3.90
2022-11-20T18:05:16.037Z,3.83
2022-11-20T18:07:43.951Z,3.72
2022-11-20T18:10:13.397Z,4.50
2022-11-20T18:12:41.068Z,5.00
2022-11-20T18:15:09.313Z,4.82
2022-11-20T18:17:37.033Z,4.50
2022-11-20T18:20:27.990Z,3.47
2022-11-20T18:22:53.130Z,3.13
2022-11-20T18:25:22.172Z,3.28
2022-11-20T18:27:49.928Z,2.72
2022-11-20T18:30:17.752Z,2.88
2022-11-20T18:32:45.500Z,3.05
2022-11-20T18:35:13.369Z,3.22
2022-11-20T18:37:41.242Z,2.80
2022-11-20T18:40:10.664Z,3.13
2022-11-20T18:42:57.381Z,2.10
2022-11-20T18:45:25.109Z,2.45
2022-11-20T18:47:52.812Z,2.10
2022-11-20T18:50:20.505Z,2.58
2022-11-20T18:52:48.174Z,2.40
2022-11-20T18:55:15.904Z,1.70
2022-11-20T18:57:44.925Z,1.90
2022-11-20T19:00:13.995Z,2.13
2022-11-20T19:02:43.283Z,1.83
2022-11-20T19:05:12.056Z,1.38
2022-11-20T19:07:40.112Z,1.60
2022-11-20T19:10:09.146Z,1.30
2022-11-20T19:12:37.092Z,1.40
2022-11-20T19:15:07.052Z,1.48
2022-11-20T19:17:35.260Z,1.45
2022-11-20T19:20:03.435Z,1.33
2022-11-20T19:22:31.153Z,1.40
2022-11-20T19:24:58.934Z,1.23
2022-11-20T19:27:26.676Z,1.20
2022-11-20T19:29:58.727Z,1.30
2022-11-20T19:32:27.829Z,1.10
2022-11-20T19:34:55.502Z,1.23
2022-11-20T19:37:25.149Z,1.20
2022-11-20T19:39:52.958Z,1.10
2022-11-20T19:42:20.702Z,1.10
2022-11-20T19:44:48.321Z,0.80
2022-11-20T19:47:16.221Z,0.80
2022-11-20T19:49:45.286Z,0.68
2022-11-20T19:52:12.955Z,0.82
2022-11-20T19:54:41.165Z,0.75
2022-11-20T19:57:08.826Z,0.73
2022-11-20T19:59:36.562Z,0.70
2022-11-20T20:02:04.306Z,0.60
2022-11-20T20:04:32.982Z,0.80
2022-11-20T20:07:03.893Z,0.70
2022-11-20T20:09:34.179Z,0.50
2022-11-20T20:12:01.971Z,0.70
2022-11-20T20:14:29.837Z,0.88
2022-11-20T20:16:57.782Z,0.80
2022-11-20T20:19:25.923Z,1.00
2022-11-20T20:21:53.901Z,0.93
2022-11-20T20:24:22.943Z,5.30
2022-11-20T20:26:53.285Z,1.83
2022-11-20T20:29:25.067Z,1.00
2022-11-20T20:31:53.172Z,1.00
2022-11-20T20:34:20.856Z,0.90
2022-11-20T20:36:48.696Z,1.13
2022-11-20T20:39:16.581Z,1.08
2022-11-20T20:41:45.702Z,1.30
2022-11-20T20:44:30.907Z,0.90
2022-11-20T20:46:58.633Z,1.30
2022-11-20T20:49:26.785Z,1.20
2022-11-20T20:51:54.797Z,1.27
2022-11-20T20:54:22.717Z,1.60
2022-11-20T20:56:53.186Z,1.30
2022-11-20T20:59:21.300Z,1.67
2022-11-20T21:01:49.319Z,1.83
2022-11-20T21:04:17.009Z,1.52
2022-11-20T21:06:44.624Z,1.52
2022-11-20T21:09:12.504Z,1.52
2022-11-20T21:11:40.867Z,1.60
2022-11-20T21:14:10.057Z,1.23
2022-11-20T21:16:43.714Z,1.45
2022-11-20T21:19:11.637Z,1.52
2022-11-20T21:21:57.339Z,1.40
2022-11-20T21:24:25.368Z,1.77
2022-11-20T21:26:53.624Z,1.75
2022-11-20T21:29:24.071Z,1.92
2022-11-20T21:31:54.045Z,1.95
2022-11-20T21:34:23.140Z,1.80
2022-11-20T21:36:51.636Z,1.92
2022-11-20T21:39:20.372Z,1.88
2022-11-20T21:41:48.722Z,1.50
2022-11-20T21:44:30.972Z,1.58
2022-11-20T21:47:01.103Z,1.83
2022-11-20T21:49:29.208Z,1.90
2022-11-20T21:51:57.032Z,1.98
2022-11-20T21:54:24.930Z,2.17
2022-11-20T21:56:52.993Z,2.30
2022-11-20T21:59:20.634Z,2.10
2022-11-20T22:01:48.557Z,2.35
2022-11-20T22:04:17.650Z,2.20
2022-11-20T22:06:45.454Z,8.98
2022-11-20T22:09:13.736Z,5.57
2022-11-20T22:11:41.463Z,2.33
2022-11-20T22:14:24.357Z,5.00
2022-11-20T22:16:54.385Z,8.48
2022-11-20T22:19:24.415Z,4.90
2022-11-20T22:21:54.343Z,2.65
2022-11-20T22:24:23.843Z,2.92
2022-11-20T22:26:51.866Z,2.75
2022-11-20T22:29:21.832Z,2.38
2022-11-20T22:31:52.070Z,3.15
2022-11-20T22:34:20.106Z,2.30
2022-11-20T22:36:49.428Z,2.33
2022-11-20T22:39:17.531Z,2.50
2022-11-20T22:41:45.259Z,3.10
2022-11-20T22:44:19.150Z,2.88
2022-11-20T22:46:47.120Z,2.47
2022-11-20T22:49:14.868Z,2.47
2022-11-20T22:51:43.327Z,3.10
2022-11-20T22:54:13.403Z,2.70
2022-11-20T22:56:41.681Z,2.22
2022-11-20T22:59:10.182Z,2.60
2022-11-20T23:01:39.129Z,2.50
2022-11-20T23:04:09.123Z,2.50
2022-11-20T23:06:37.171Z,2.20
2022-11-20T23:09:06.889Z,2.72
2022-11-20T23:11:36.801Z,3.20
2022-11-20T23:14:06.470Z,2.28
2022-11-20T23:16:35.638Z,2.20
2022-11-20T23:19:05.993Z,1.98
2022-11-20T23:21:35.069Z,2.50
2022-11-20T23:24:03.143Z,2.75
2022-11-20T23:26:32.475Z,2.33
2022-11-20T23:29:02.291Z,2.47
2022-11-20T23:31:31.847Z,2.70
2022-11-20T23:34:00.273Z,2.28
2022-11-20T23:36:28.451Z,2.72
2022-11-20T23:38:56.154Z,2.63
2022-11-20T23:41:23.926Z,2.28
2022-11-20T23:43:51.773Z,2.88
2022-11-20T23:46:20.915Z,2.15
2022-11-20T23:48:48.643Z,2.65
2022-11-20T23:51:16.665Z,2.72
2022-11-20T23:53:44.425Z,2.78
2022-11-20T23:56:14.188Z,2.90
2022-11-20T23:58:42.193Z,2.60
